Time;durP1;ratioP1;P1;durP2;ratioP2;P2;SDS_P1;SDS_P2;PMS_P1;PMS_P2;Temp;Humidity;BMP_temperature;BMP_pressure;BME280_temperature;BME280_humidity;BME280_pressure;Samples;Min_cycle;Max_cycle;Signal;HPM_P1;HPM_P2
2022/11/05 00:09:29;;;;;;;24.20;16.10;;;;;;;6.78;100.00;100050.72;5101725;28;20531;-66
2022/11/05 00:17:26;;;;;;;23.63;15.60;;;;;;;6.74;100.00;100054.59;5090768;28;20479;-65
2022/11/05 00:19:53;;;;;;;24.00;16.27;;;;;;;6.68;100.00;100048.91;5084346;28;20449;-67
2022/11/05 00:25:20;;;;;;;25.77;14.60;;;;;;;6.73;100.00;100050.25;5085852;28;20491;-68
2022/11/05 00:27:48;;;;;;;23.03;15.40;;;;;;;6.62;100.00;100052.06;5086751;28;20458;-67
2022/11/05 00:30:18;;;;;;;24.63;16.10;;;;;;;6.54;100.00;100048.19;5103002;28;20540;-65
2022/11/05 00:32:46;;;;;;;26.73;16.63;;;;;;;6.47;100.00;100054.09;5084280;28;20449;-66
2022/11/05 00:35:13;;;;;;;22.80;15.43;;;;;;;6.40;100.00;100054.56;5101628;28;20450;-67
2022/11/05 00:37:40;;;;;;;28.90;15.87;;;;;;;6.41;100.00;100055.44;5090343;28;20448;-66
2022/11/05 00:40:08;;;;;;;22.20;15.33;;;;;;;6.37;100.00;100061.91;5083890;28;20452;-65
2022/11/05 00:45:21;;;;;;;23.20;15.27;;;;;;;6.27;100.00;100064.47;5093033;28;20451;-67
2022/11/05 00:50:32;;;;;;;25.10;14.67;;;;;;;6.19;100.00;100072.16;5087757;28;20543;-67
2022/11/05 00:53:01;;;;;;;24.10;14.97;;;;;;;6.15;100.00;100074.19;5084251;28;20436;-67
2022/11/05 00:55:32;;;;;;;26.03;15.00;;;;;;;6.11;100.00;100080.72;5084546;28;20458;-67
2022/11/05 00:57:59;;;;;;;28.07;13.87;;;;;;;6.07;100.00;100084.53;5102298;28;20497;-67
2022/11/05 01:00:29;;;;;;;21.53;13.90;;;;;;;6.04;100.00;100079.44;5097411;28;20466;-67
2022/11/05 01:02:58;;;;;;;23.23;14.20;;;;;;;6.01;100.00;100087.66;5100570;28;20456;-67
2022/11/05 01:05:25;;;;;;;21.40;13.60;;;;;;;5.98;100.00;100083.44;5092539;28;20515;-66
2022/11/05 01:07:52;;;;;;;21.57;13.63;;;;;;;5.96;100.00;100089.81;5093004;28;20468;-67
2022/11/05 01:10:19;;;;;;;22.00;15.53;;;;;;;5.96;100.00;100095.97;5082934;28;20509;-66
2022/11/05 01:12:46;;;;;;;24.50;15.87;;;;;;;5.94;100.00;100097.88;5102585;28;20443;-65
2022/11/05 01:15:12;;;;;;;32.97;16.03;;;;;;;5.86;100.00;100102.88;5086014;28;20533;-66
2022/11/05 01:17:40;;;;;;;23.63;15.73;;;;;;;5.85;100.00;100095.91;5100169;28;20510;-66
2022/11/05 01:20:08;;;;;;;23.03;14.60;;;;;;;5.84;100.00;100107.47;5068488;28;20456;-67
2022/11/05 01:22:34;;;;;;;22.30;15.30;;;;;;;5.82;100.00;100104.09;5084366;28;20452;-66
2022/11/05 01:25:01;;;;;;;24.43;14.97;;;;;;;5.79;100.00;100112.25;5103820;28;20510;-67
2022/11/05 01:27:28;;;;;;;22.53;16.00;;;;;;;5.80;100.00;100098.06;5096516;28;20483;-66
2022/11/05 01:29:54;;;;;;;21.67;15.50;;;;;;;5.79;100.00;100097.19;5103865;28;20443;-66
2022/11/05 01:32:21;;;;;;;24.10;15.30;;;;;;;5.78;100.00;100107.91;5086897;28;20522;-65
2022/11/05 01:34:49;;;;;;;26.77;16.70;;;;;;;5.74;100.00;100101.16;5083406;28;20476;-65
2022/11/05 01:37:15;;;;;;;29.70;17.40;;;;;;;5.73;100.00;100104.75;5084189;28;20500;-66
2022/11/05 01:39:42;;;;;;;25.63;16.97;;;;;;;5.70;100.00;100105.00;5093816;28;20456;-66
2022/11/05 01:42:14;;;;;;;26.50;15.80;;;;;;;5.65;100.00;100105.31;5090456;28;20517;-66
2022/11/05 01:44:59;;;;;;;30.07;16.63;;;;;;;5.63;100.00;100109.91;5103000;28;20517;-67
2022/11/05 01:47:32;;;;;;;26.00;16.83;;;;;;;5.61;100.00;100111.81;5100541;28;20475;-66
2022/11/05 01:50:03;;;;;;;26.20;17.53;;;;;;;5.53;100.00;100106.22;5063267;28;20473;-64
2022/11/05 01:52:32;;;;;;;25.33;16.33;;;;;;;5.71;100.00;100115.50;5081647;28;20480;-65
2022/11/05 01:54:59;;;;;;;25.47;15.70;;;;;;;5.69;100.00;100112.09;5088528;28;20549;-66
2022/11/05 01:57:26;;;;;;;22.60;14.47;;;;;;;5.60;100.00;100118.06;5102810;28;20499;-65
2022/11/05 01:59:56;;;;;;;22.10;15.90;;;;;;;5.59;100.00;100116.38;5096480;28;20451;-66
2022/11/05 02:02:24;;;;;;;24.60;15.90;;;;;;;5.55;100.00;100112.25;5090944;28;20496;-66
2022/11/05 02:04:52;;;;;;;23.97;14.50;;;;;;;5.47;100.00;100110.16;5085448;28;20450;-65
2022/11/05 02:07:21;;;;;;;21.90;14.33;;;;;;;5.42;100.00;100107.84;5091700;28;21044;-66
2022/11/05 02:09:51;;;;;;;22.57;14.23;;;;;;;5.38;100.00;100121.41;5102705;28;20491;-66
2022/11/05 02:12:18;;;;;;;23.03;15.20;;;;;;;5.35;100.00;100111.06;5096697;28;20507;-66
2022/11/05 02:14:45;;;;;;;22.50;14.17;;;;;;;5.33;100.00;100118.25;5070317;28;20483;-66
2022/11/05 02:17:17;;;;;;;20.70;13.67;;;;;;;5.28;100.00;100121.25;5095127;28;20559;-66
2022/11/05 02:20:09;;;;;;;23.63;13.40;;;;;;;5.25;100.00;100110.88;5098485;28;20479;-64
2022/11/05 02:22:48;;;;;;;20.83;14.20;;;;;;;5.21;100.00;100112.88;5101414;28;20463;-66
2022/11/05 02:25:37;;;;;;;23.13;14.03;;;;;;;5.17;100.00;100124.66;5092167;28;20505;-67
2022/11/05 02:28:17;;;;;;;22.30;12.97;;;;;;;5.16;100.00;100127.44;5088906;28;20464;-66
2022/11/05 02:30:49;;;;;;;22.93;14.60;;;;;;;5.09;100.00;100119.91;5092939;28;20988;-66
2022/11/05 02:33:23;;;;;;;20.73;13.83;;;;;;;5.07;100.00;100118.34;5072764;28;20975;-68
2022/11/05 02:36:23;;;;;;;19.17;13.80;;;;;;;5.08;100.00;100120.00;5098926;28;20509;-66
2022/11/05 02:38:57;;;;;;;22.00;15.73;;;;;;;5.07;100.00;100129.78;5071971;28;20518;-65
2022/11/05 02:41:25;;;;;;;22.83;14.70;;;;;;;5.06;100.00;100132.53;5088181;28;20542;-68
2022/11/05 02:44:04;;;;;;;22.60;14.90;;;;;;;5.05;100.00;100139.63;5094170;28;20468;-67
2022/11/05 02:46:37;;;;;;;21.83;14.03;;;;;;;5.03;100.00;100138.03;5080895;28;20528;-67
2022/11/05 02:49:09;;;;;;;18.67;13.50;;;;;;;5.03;100.00;100136.22;5081951;28;20483;-67
2022/11/05 02:51:39;;;;;;;22.83;14.30;;;;;;;5.05;100.00;100144.94;5084044;28;20555;-66
2022/11/05 02:54:09;;;;;;;32.67;15.50;;;;;;;5.20;100.00;100135.03;5081805;28;20468;-66
2022/11/05 02:56:39;;;;;;;27.87;16.07;;;;;;;5.33;100.00;100150.94;5082578;28;20491;-67
2022/11/05 02:59:06;;;;;;;26.23;15.17;;;;;;;5.26;100.00;100147.88;5081652;28;20531;-67
2022/11/05 03:01:34;;;;;;;22.40;14.27;;;;;;;5.39;100.00;100149.63;5080817;28;20472;-66
2022/11/05 03:04:02;;;;;;;22.03;14.60;;;;;;;5.46;100.00;100143.78;5098780;28;20443;-66
2022/11/05 03:07:01;;;;;;;23.47;14.47;;;;;;;5.33;100.00;100144.75;5096903;28;20506;-66
2022/11/05 03:09:59;;;;;;;21.60;14.50;;;;;;;5.36;100.00;100136.59;5060762;28;20516;-65
2022/11/05 03:12:35;;;;;;;21.10;13.80;;;;;;;5.26;100.00;100145.22;5095584;28;20912;-66
2022/11/05 03:15:10;;;;;;;22.73;13.37;;;;;;;5.11;100.00;100142.81;5083972;28;20524;-66
2022/11/05 03:17:44;;;;;;;22.70;12.50;;;;;;;5.01;100.00;100145.25;5099272;28;20490;-66
2022/11/05 03:20:17;;;;;;;25.33;16.00;;;;;;;4.94;100.00;100144.00;5082902;28;20444;-66
2022/11/05 03:22:47;;;;;;;21.83;14.13;;;;;;;4.87;100.00;100143.56;5084366;28;20487;-65
2022/11/05 03:25:17;;;;;;;19.00;12.23;;;;;;;4.81;100.00;100150.13;5080946;28;20452;-65
2022/11/05 03:27:46;;;;;;;21.00;13.47;;;;;;;4.76;100.00;100154.91;5096284;28;20460;-66
2022/11/05 03:30:14;;;;;;;19.73;12.90;;;;;;;4.72;100.00;100164.00;5087506;28;20468;-66
2022/11/05 03:32:48;;;;;;;17.87;11.70;;;;;;;4.73;100.00;100168.34;5088530;28;20511;-65
2022/11/05 03:35:18;;;;;;;29.27;14.70;;;;;;;4.73;100.00;100173.66;5083617;28;20480;-66
2022/11/05 03:37:47;;;;;;;26.40;13.23;;;;;;;4.72;100.00;100169.28;5101318;28;20461;-67
2022/11/05 03:40:15;;;;;;;20.70;14.30;;;;;;;4.77;100.00;100169.00;5100041;28;20452;-65
2022/11/05 03:42:47;;;;;;;21.50;13.77;;;;;;;4.78;100.00;100171.53;5101005;28;20503;-66
2022/11/05 03:45:16;;;;;;;19.67;13.27;;;;;;;4.68;100.00;100184.53;5094097;28;20976;-66
2022/11/05 03:47:45;;;;;;;19.30;12.63;;;;;;;4.68;100.00;100179.25;5079809;28;20476;-65
2022/11/05 03:50:19;;;;;;;23.47;13.90;;;;;;;4.63;100.00;100180.53;5087515;28;20487;-66
2022/11/05 03:52:48;;;;;;;25.63;16.10;;;;;;;4.63;100.00;100183.16;5100624;28;20955;-67
2022/11/05 03:55:15;;;;;;;23.73;15.17;;;;;;;4.63;100.00;100184.00;5087965;28;20483;-66
2022/11/05 03:57:45;;;;;;;24.57;15.10;;;;;;;4.65;100.00;100182.13;5081322;28;20440;-66
2022/11/05 04:00:13;;;;;;;25.07;15.70;;;;;;;4.68;100.00;100181.91;5097572;28;20480;-66
2022/11/05 04:02:39;;;;;;;24.80;15.63;;;;;;;4.73;100.00;100186.91;5082425;28;20471;-67
2022/11/05 04:05:07;;;;;;;26.23;13.87;;;;;;;4.68;100.00;100187.19;5087357;28;20479;-66
2022/11/05 04:18:31;;;;;;;25.40;16.30;;;;;;;5.20;100.00;100216.34;5086764;28;20752;-66
2022/11/05 04:26:27;;;;;;;25.43;16.70;;;;;;;5.66;100.00;100216.59;5099661;28;20477;-66
2022/11/05 04:31:38;;;;;;;26.67;16.20;;;;;;;5.97;100.00;100216.22;5082603;28;20471;-67
2022/11/05 04:34:05;;;;;;;30.57;17.67;;;;;;;6.01;100.00;100210.59;5086109;28;20794;-66
2022/11/05 04:36:33;;;;;;;25.60;16.70;;;;;;;6.01;100.00;100209.75;5095488;28;20509;-66
2022/11/05 04:39:00;;;;;;;31.10;18.00;;;;;;;5.91;100.00;100216.66;5087559;28;20495;-66
2022/11/05 04:41:26;;;;;;;29.70;16.47;;;;;;;5.77;100.00;100220.31;5082189;28;20492;-66
2022/11/05 04:43:53;;;;;;;24.73;16.33;;;;;;;5.65;100.00;100219.38;5097260;28;20496;-66
2022/11/05 04:46:19;;;;;;;25.07;17.03;;;;;;;5.55;100.00;100221.81;5090570;28;20475;-66
2022/11/05 04:48:46;;;;;;;25.27;16.60;;;;;;;5.42;100.00;100219.19;5100067;28;20460;-67
2022/11/05 04:51:13;;;;;;;25.53;17.17;;;;;;;5.32;100.00;100218.16;5089595;28;20479;-67
2022/11/05 04:53:40;;;;;;;22.97;15.43;;;;;;;5.19;100.00;100219.94;5091643;28;20444;-66
2022/11/05 04:56:11;;;;;;;23.17;14.50;;;;;;;5.16;100.00;100217.53;5087933;28;20529;-65
2022/11/05 04:58:41;;;;;;;27.37;15.77;;;;;;;5.06;100.00;100217.31;5104567;28;20519;-65
2022/11/05 05:01:12;;;;;;;24.50;16.13;;;;;;;4.98;100.00;100217.88;5093991;28;20484;-66
2022/11/05 05:03:38;;;;;;;22.07;14.90;;;;;;;4.92;100.00;100222.72;5092366;28;20507;-64
2022/11/05 05:06:05;;;;;;;25.60;15.27;;;;;;;4.89;100.00;100227.25;5101534;28;20558;-65
2022/11/05 05:08:32;;;;;;;23.47;15.40;;;;;;;4.83;100.00;100233.00;5090614;28;20447;-67
2022/11/05 05:11:02;;;;;;;23.93;15.33;;;;;;;4.80;100.00;100230.53;5099006;28;20490;-67
2022/11/05 05:13:29;;;;;;;19.57;13.60;;;;;;;4.77;100.00;100237.84;5089837;28;20464;-66
2022/11/05 05:15:55;;;;;;;22.53;15.20;;;;;;;4.79;100.00;100243.88;5090570;28;20922;-63
2022/11/05 05:18:24;;;;;;;24.27;15.50;;;;;;;4.77;100.00;100240.50;5094876;28;20521;-66
2022/11/05 05:23:35;;;;;;;31.47;18.90;;;;;;;4.88;100.00;100236.19;5102800;28;20499;-65
2022/11/05 05:26:03;;;;;;;32.27;18.57;;;;;;;4.98;100.00;100235.53;5102344;28;20562;-64
2022/11/05 05:28:29;;;;;;;32.50;16.83;;;;;;;4.93;100.00;100235.88;5095884;28;20887;-65
2022/11/05 05:30:58;;;;;;;29.07;18.03;;;;;;;4.95;100.00;100238.38;5083487;28;20539;-65
2022/11/05 05:33:25;;;;;;;34.77;21.00;;;;;;;5.05;100.00;100247.41;5086303;28;21017;-65
2022/11/05 05:35:51;;;;;;;27.13;17.77;;;;;;;5.10;100.00;100240.00;5089202;28;20543;-65
2022/11/05 05:38:18;;;;;;;32.80;17.93;;;;;;;5.20;100.00;100235.75;5089063;28;20451;-66
2022/11/05 05:40:45;;;;;;;40.13;21.43;;;;;;;5.61;100.00;100245.25;5088329;28;20581;-67
2022/11/05 05:43:13;;;;;;;35.07;19.00;;;;;;;5.72;100.00;100248.97;5102659;28;20482;-67
2022/11/05 05:45:39;;;;;;;35.73;19.50;;;;;;;5.63;100.00;100238.03;5093256;28;20499;-67
2022/11/05 05:48:06;;;;;;;39.03;21.53;;;;;;;5.69;100.00;100244.72;5081383;28;20536;-67
2022/11/05 05:50:32;;;;;;;32.60;20.90;;;;;;;5.69;100.00;100238.56;5088531;28;20470;-67
2022/11/05 05:52:59;;;;;;;43.07;21.90;;;;;;;5.74;100.00;100244.38;5101303;28;21003;-66
2022/11/05 05:55:26;;;;;;;37.47;22.50;;;;;;;5.92;100.00;100253.69;5083015;28;20551;-67
2022/11/05 05:57:53;;;;;;;39.40;23.47;;;;;;;6.09;100.00;100254.28;5082245;28;20966;-67
2022/11/05 06:00:21;;;;;;;46.70;24.93;;;;;;;6.10;100.00;100269.28;5083252;28;20488;-67
2022/11/05 06:02:48;;;;;;;37.90;23.13;;;;;;;6.07;100.00;100262.38;5100496;28;20511;-63
2022/11/05 06:05:15;;;;;;;36.53;21.80;;;;;;;5.98;100.00;100271.84;5087577;28;20529;-67
2022/11/05 06:07:41;;;;;;;40.93;21.27;;;;;;;5.93;100.00;100273.09;5083131;28;20467;-67
2022/11/05 06:10:09;;;;;;;36.33;20.07;;;;;;;5.89;100.00;100269.81;5083549;28;20532;-67
2022/11/05 06:12:35;;;;;;;32.67;20.50;;;;;;;5.93;100.00;100271.28;5083587;28;20524;-65
2022/11/05 06:15:02;;;;;;;36.03;22.50;;;;;;;6.02;100.00;100280.44;5082555;28;20480;-66
2022/11/05 06:17:30;;;;;;;33.67;20.60;;;;;;;6.06;100.00;100278.41;5081946;28;20476;-66
2022/11/05 06:19:56;;;;;;;36.70;21.57;;;;;;;6.09;100.00;100286.16;5080310;28;21004;-66
2022/11/05 06:22:26;;;;;;;30.00;20.70;;;;;;;6.07;100.00;100280.94;5081337;28;20496;-66
2022/11/05 06:24:52;;;;;;;40.20;21.10;;;;;;;6.17;100.00;100295.25;5081307;28;21263;-65
2022/11/05 06:27:19;;;;;;;38.10;22.00;;;;;;;6.23;100.00;100293.94;5081480;28;20503;-66
2022/11/05 06:29:45;;;;;;;40.00;22.13;;;;;;;6.29;100.00;100295.34;5081584;28;20445;-66
2022/11/05 06:32:12;;;;;;;37.57;21.60;;;;;;;6.37;100.00;100300.91;5082045;28;20479;-66
2022/11/05 06:34:40;;;;;;;38.00;23.57;;;;;;;6.43;100.00;100297.81;5085426;28;20516;-66
2022/11/05 06:37:07;;;;;;;38.07;24.00;;;;;;;6.48;100.00;100297.47;5086607;28;20496;-66
2022/11/05 06:39:33;;;;;;;37.20;22.87;;;;;;;6.46;100.00;100304.69;5083427;28;20471;-68
2022/11/05 06:42:00;;;;;;;40.60;23.47;;;;;;;6.51;100.00;100294.56;5080839;28;20484;-67
2022/11/05 06:44:27;;;;;;;45.83;23.60;;;;;;;6.51;100.00;100311.38;5081894;28;20475;-67
2022/11/05 06:46:54;;;;;;;46.90;23.20;;;;;;;6.45;100.00;100314.47;5081778;28;20488;-64
2022/11/05 06:49:23;;;;;;;41.20;23.43;;;;;;;6.56;100.00;100319.88;5081369;28;21051;-67
2022/11/05 06:51:52;;;;;;;36.63;20.83;;;;;;;6.78;100.00;100323.56;5082538;28;21164;-67
2022/11/05 06:54:19;;;;;;;51.30;25.67;;;;;;;6.90;100.00;100333.28;5102260;28;20479;-67
2022/11/05 06:56:45;;;;;;;40.80;24.83;;;;;;;7.00;100.00;100337.94;5085491;28;20492;-67
2022/11/05 06:59:12;;;;;;;48.30;27.57;;;;;;;6.94;100.00;100336.56;5080692;28;20432;-66
2022/11/05 07:01:39;;;;;;;53.17;25.90;;;;;;;6.83;100.00;100340.03;5077338;28;20522;-64
2022/11/05 07:04:05;;;;;;;44.50;25.90;;;;;;;6.84;100.00;100344.38;5101435;28;20478;-67
2022/11/05 07:06:32;;;;;;;52.20;28.63;;;;;;;6.81;100.00;100341.13;5100063;28;20530;-67
2022/11/05 07:09:00;;;;;;;53.40;31.63;;;;;;;6.75;100.00;100353.88;5095419;28;20472;-67
2022/11/05 07:11:27;;;;;;;52.83;29.80;;;;;;;6.87;100.00;100357.41;5086517;28;20476;-67
2022/11/05 07:13:53;;;;;;;52.77;31.47;;;;;;;7.00;100.00;100361.84;5090245;28;20471;-67
2022/11/05 07:16:20;;;;;;;53.27;32.60;;;;;;;6.87;100.00;100361.91;5081902;28;20579;-66
2022/11/05 07:18:46;;;;;;;60.20;31.87;;;;;;;6.87;100.00;100361.91;5087925;28;20538;-67
2022/11/05 07:21:14;;;;;;;58.87;33.67;;;;;;;6.81;100.00;100363.22;5091349;28;20507;-66
2022/11/05 07:23:40;;;;;;;57.40;31.43;;;;;;;6.58;100.00;100373.72;5089226;28;20451;-67
2022/11/05 07:26:08;;;;;;;59.40;30.97;;;;;;;6.61;100.00;100372.63;5094908;28;20511;-67
2022/11/05 07:28:35;;;;;;;58.43;30.20;;;;;;;6.67;100.00;100374.00;5091895;28;20477;-66
2022/11/05 07:31:02;;;;;;;52.57;29.30;;;;;;;6.63;100.00;100380.50;5075147;28;20512;-67
2022/11/05 07:33:29;;;;;;;52.83;30.17;;;;;;;6.64;100.00;100385.69;5087576;28;20479;-67
2022/11/05 07:35:56;;;;;;;55.00;31.20;;;;;;;6.71;100.00;100376.31;5088350;28;20488;-68
2022/11/05 07:38:22;;;;;;;50.13;29.33;;;;;;;6.81;100.00;100388.94;5101471;28;20471;-67
2022/11/05 07:40:49;;;;;;;54.23;31.17;;;;;;;7.06;100.00;100372.00;5094984;28;20563;-67
2022/11/05 07:43:17;;;;;;;50.73;26.67;;;;;;;7.03;100.00;100367.78;5093216;28;20499;-67
2022/11/05 07:45:45;;;;;;;50.97;28.00;;;;;;;7.22;100.00;100377.00;5094874;28;20479;-67
2022/11/05 07:48:11;;;;;;;54.70;29.63;;;;;;;7.14;100.00;100373.13;5080668;28;20520;-67
2022/11/05 07:50:38;;;;;;;55.43;28.43;;;;;;;7.32;100.00;100383.34;5080063;28;20918;-66
2022/11/05 07:53:06;;;;;;;54.70;28.00;;;;;;;7.47;100.00;100382.16;5085689;28;20931;-66
2022/11/05 07:55:33;;;;;;;54.63;29.90;;;;;;;7.83;100.00;100384.75;5085708;28;20504;-65
2022/11/05 07:58:00;;;;;;;50.37;30.00;;;;;;;9.00;97.61;100386.09;5095029;28;20982;-66
2022/11/05 08:00:28;;;;;;;48.67;28.83;;;;;;;8.75;93.85;100392.56;5070079;28;20484;-66
2022/11/05 08:02:59;;;;;;;51.37;29.60;;;;;;;8.99;91.64;100387.91;5080367;28;20512;-67
2022/11/05 08:05:26;;;;;;;45.43;27.23;;;;;;;8.46;92.46;100388.66;5085171;28;20470;-67
2022/11/05 08:07:53;;;;;;;49.17;28.70;;;;;;;8.97;92.45;100373.00;5080959;28;20475;-66
2022/11/05 08:10:20;;;;;;;44.07;29.90;;;;;;;8.72;92.12;100384.84;5078021;28;20487;-66
2022/11/05 08:12:47;;;;;;;52.70;30.03;;;;;;;8.74;91.39;100382.91;5091388;28;20476;-63
2022/11/05 08:15:13;;;;;;;48.97;30.10;;;;;;;8.84;91.12;100389.19;5078275;28;20480;-63
2022/11/05 08:17:41;;;;;;;42.60;28.10;;;;;;;9.08;89.73;100382.78;5078839;28;20491;-63
2022/11/05 08:20:09;;;;;;;56.20;31.90;;;;;;;9.15;90.43;100374.16;5091722;28;20456;-63
2022/11/05 08:22:36;;;;;;;47.00;30.77;;;;;;;9.61;88.87;100380.06;5087487;28;20528;-63
2022/11/05 08:25:02;;;;;;;48.60;30.00;;;;;;;9.83;85.41;100371.06;5082610;28;20484;-63
2022/11/05 08:27:29;;;;;;;53.93;32.63;;;;;;;11.23;83.07;100380.00;5077833;28;20507;-63
2022/11/05 08:29:56;;;;;;;52.40;32.80;;;;;;;12.00;76.93;100380.03;5079677;28;20929;-64
2022/11/05 08:32:22;;;;;;;48.30;31.37;;;;;;;10.89;77.19;100385.75;5088234;28;20520;-64
2022/11/05 08:34:50;;;;;;;49.97;30.13;;;;;;;11.14;78.30;100393.38;5083923;28;20472;-64
2022/11/05 08:37:17;;;;;;;41.90;28.47;;;;;;;10.46;79.32;100394.97;5087959;28;20567;-63
2022/11/05 08:39:43;;;;;;;45.60;28.00;;;;;;;9.82;82.72;100401.41;5079282;28;20513;-64
2022/11/05 08:42:10;;;;;;;38.07;26.63;;;;;;;9.32;85.41;100403.88;5076539;28;20511;-64
2022/11/05 08:44:36;;;;;;;48.23;30.30;;;;;;;9.23;87.20;100397.50;5077875;28;20459;-63
2022/11/05 08:47:03;;;;;;;49.73;31.30;;;;;;;8.96;89.82;100408.66;5087454;28;20503;-64
2022/11/05 08:49:30;;;;;;;55.87;32.80;;;;;;;8.89;90.00;100402.97;5085690;28;20472;-64
2022/11/05 08:51:58;;;;;;;55.90;33.30;;;;;;;8.81;89.94;100397.41;5084094;28;20503;-62
2022/11/05 08:54:24;;;;;;;54.57;35.70;;;;;;;9.01;89.66;100398.47;5097668;28;20512;-64
2022/11/05 08:56:51;;;;;;;55.00;35.67;;;;;;;9.02;89.59;100397.47;5086090;28;20504;-63
2022/11/05 08:59:17;;;;;;;60.20;36.60;;;;;;;9.61;87.77;100399.59;5083597;28;20461;-64
2022/11/05 09:01:44;;;;;;;58.70;37.00;;;;;;;10.21;84.15;100401.59;5099247;28;20516;-64
2022/11/05 09:04:11;;;;;;;57.37;36.10;;;;;;;10.29;83.56;100416.97;5083931;28;20860;-63
2022/11/05 09:06:37;;;;;;;51.43;33.43;;;;;;;9.94;84.34;100410.19;5092809;28;20499;-63
2022/11/05 09:09:05;;;;;;;47.47;33.33;;;;;;;9.62;85.61;100411.13;5087424;28;20523;-64
2022/11/05 09:11:32;;;;;;;52.73;33.70;;;;;;;9.45;86.32;100409.91;5094380;28;20507;-63
2022/11/05 09:13:58;;;;;;;48.30;31.50;;;;;;;10.32;83.69;100414.88;5092174;28;20503;-64
2022/11/05 09:16:26;;;;;;;52.60;34.23;;;;;;;10.40;82.62;100413.38;5076170;28;20548;-63
2022/11/05 09:18:53;;;;;;;51.90;32.67;;;;;;;11.09;79.85;100420.53;5082019;28;20459;-63
2022/11/05 09:21:20;;;;;;;42.63;32.30;;;;;;;12.30;74.27;100408.38;5089837;28;20543;-63
2022/11/05 09:23:46;;;;;;;49.97;34.20;;;;;;;12.17;72.54;100413.22;5087554;28;20503;-63
2022/11/05 09:26:14;;;;;;;43.53;30.73;;;;;;;12.73;71.14;100414.94;5081672;28;20485;-63
2022/11/05 09:28:42;;;;;;;45.00;28.87;;;;;;;13.20;69.56;100413.91;5084562;28;20472;-63
2022/11/05 09:31:10;;;;;;;39.20;30.37;;;;;;;12.04;69.83;100416.25;5083273;28;20479;-64
2022/11/05 09:33:38;;;;;;;37.77;29.47;;;;;;;11.76;73.12;100426.03;5081886;28;20523;-64
2022/11/05 09:36:05;;;;;;;46.77;29.93;;;;;;;11.58;74.70;100418.72;5087969;28;20473;-65
2022/11/05 09:38:33;;;;;;;38.30;29.10;;;;;;;11.25;76.36;100428.88;5084625;28;20480;-66
2022/11/05 09:41:01;;;;;;;40.80;29.03;;;;;;;13.51;69.14;100430.47;5081649;28;20575;-67
2022/11/05 09:43:34;;;;;;;41.93;29.70;;;;;;;13.11;68.35;100428.25;5083971;28;20526;-71
2022/11/05 09:46:05;;;;;;;42.17;26.77;;;;;;;15.07;61.58;100442.06;5081108;28;21003;-73
2022/11/05 09:48:32;;;;;;;32.47;25.70;;;;;;;14.93;59.77;100442.72;5081020;28;20499;-73
2022/11/05 09:50:59;;;;;;;31.40;23.50;;;;;;;15.56;59.51;100445.84;5091826;28;20526;-74
2022/11/05 09:53:26;;;;;;;27.50;23.23;;;;;;;16.47;55.96;100441.97;5071517;28;20514;-71
2022/11/05 09:55:55;;;;;;;29.03;24.03;;;;;;;16.33;55.39;100443.53;5095161;28;20481;-73
2022/11/05 09:58:26;;;;;;;27.80;22.40;;;;;;;17.05;54.17;100431.78;5097401;28;20442;-73
2022/11/05 10:00:55;;;;;;;26.00;22.60;;;;;;;16.57;52.62;100434.50;5094084;28;20488;-74
2022/11/05 10:03:23;;;;;;;23.43;21.00;;;;;;;17.13;51.54;100442.53;5101090;28;20454;-73
2022/11/05 10:05:50;;;;;;;21.90;19.50;;;;;;;16.37;54.21;100438.66;5101221;28;20546;-72
2022/11/05 10:08:21;;;;;;;20.83;18.57;;;;;;;15.65;55.05;100438.59;5082010;28;20475;-73
2022/11/05 10:10:50;;;;;;;23.30;19.77;;;;;;;15.52;56.37;100447.16;5094939;28;20505;-73
2022/11/05 10:13:22;;;;;;;21.13;17.57;;;;;;;16.59;52.81;100455.94;5093588;28;20529;-71
2022/11/05 10:15:55;;;;;;;19.23;16.90;;;;;;;17.13;52.55;100447.06;5095142;28;20470;-71
2022/11/05 10:18:32;;;;;;;18.20;16.17;;;;;;;17.82;50.01;100452.47;5099479;28;20567;-73
2022/11/05 10:20:59;;;;;;;22.10;15.67;;;;;;;18.77;47.02;100456.34;5100822;28;20468;-72
2022/11/05 10:23:27;;;;;;;16.90;15.10;;;;;;;17.25;50.70;100452.91;5099845;28;20432;-74
2022/11/05 10:25:58;;;;;;;15.40;13.80;;;;;;;17.35;51.04;100455.41;5079286;28;20477;-66
2022/11/05 10:28:26;;;;;;;14.90;13.30;;;;;;;16.67;51.49;100463.19;5082103;28;20438;-66
2022/11/05 10:30:58;;;;;;;14.70;13.07;;;;;;;16.15;54.18;100459.94;5081344;28;20560;-69
2022/11/05 10:33:29;;;;;;;19.90;12.87;;;;;;;16.25;54.05;100456.22;5080314;28;21080;-68
2022/11/05 10:36:01;;;;;;;14.67;12.20;;;;;;;16.33;55.32;100458.91;5080771;28;20850;-69
2022/11/05 10:38:27;;;;;;;17.60;11.23;;;;;;;17.40;52.13;100474.63;5090131;28;20458;-70
2022/11/05 10:40:59;;;;;;;13.97;10.40;;;;;;;17.20;50.87;100460.72;5100279;28;20497;-70
2022/11/05 10:43:30;;;;;;;13.90;10.60;;;;;;;16.83;52.87;100468.50;5081710;28;20469;-69
2022/11/05 10:46:06;;;;;;;18.40;11.90;;;;;;;15.63;56.58;100460.31;5080483;28;20474;-68
2022/11/05 10:48:49;;;;;;;13.43;9.83;;;;;;;13.67;60.86;100462.00;5079373;28;20455;-69
2022/11/05 10:51:16;;;;;;;13.00;10.30;;;;;;;14.08;61.59;100464.16;5087827;28;20508;-69
2022/11/05 10:53:50;;;;;;;16.40;10.33;;;;;;;13.35;62.42;100455.38;5095249;28;20500;-68
2022/11/05 10:56:34;;;;;;;17.37;11.20;;;;;;;12.66;64.80;100456.78;5079074;28;20499;-69
2022/11/05 10:59:02;;;;;;;15.57;11.37;;;;;;;11.99;68.15;100459.53;5091953;28;20431;-69
2022/11/05 11:01:32;;;;;;;18.53;11.53;;;;;;;14.05;60.66;100451.03;5094530;28;20594;-68
2022/11/05 11:04:15;;;;;;;16.43;10.57;;;;;;;14.82;59.08;100456.47;5099366;28;20483;-69
2022/11/05 11:06:48;;;;;;;17.70;10.93;;;;;;;14.91;59.31;100451.94;5093432;28;20487;-69
2022/11/05 11:09:20;;;;;;;17.93;9.00;;;;;;;16.24;53.82;100454.53;5100952;28;20448;-70
2022/11/05 11:11:55;;;;;;;13.63;8.83;;;;;;;15.21;55.64;100450.53;5090848;28;20474;-69
2022/11/05 11:14:21;;;;;;;12.87;8.80;;;;;;;16.47;52.37;100441.13;5060401;28;20616;-70
2022/11/05 11:16:55;;;;;;;12.10;9.27;;;;;;;16.13;54.04;100445.81;5079772;28;20479;-69
2022/11/05 11:19:28;;;;;;;12.47;8.77;;;;;;;16.64;51.72;100447.31;5079662;28;20988;-70
2022/11/05 11:22:20;;;;;;;12.27;9.03;;;;;;;15.96;53.41;100444.97;5090635;28;20494;-69
2022/11/05 11:24:50;;;;;;;11.50;7.77;;;;;;;15.38;54.31;100451.38;5099276;28;20455;-70
2022/11/05 11:27:21;;;;;;;11.47;7.77;;;;;;;13.91;60.02;100447.91;5082738;28;20478;-69
2022/11/05 11:29:51;;;;;;;11.17;7.77;;;;;;;14.88;58.74;100447.75;5093521;28;20452;-69
2022/11/05 11:32:20;;;;;;;14.33;8.53;;;;;;;15.52;56.29;100449.84;5096635;28;20524;-68
2022/11/05 11:34:51;;;;;;;12.60;7.20;;;;;;;15.80;54.72;100450.41;5077922;28;20945;-69
2022/11/05 11:37:21;;;;;;;17.03;7.10;;;;;;;15.77;53.32;100442.66;5080540;28;20483;-69
2022/11/05 11:39:50;;;;;;;13.37;8.80;;;;;;;15.36;54.86;100445.31;5088809;28;20476;-68
2022/11/05 11:42:21;;;;;;;10.00;7.17;;;;;;;14.15;56.97;100448.22;5099572;28;20510;-68
2022/11/05 11:44:49;;;;;;;8.80;5.97;;;;;;;12.92;61.63;100445.34;5064537;28;20743;-68
2022/11/05 11:47:19;;;;;;;10.90;7.50;;;;;;;12.33;64.05;100442.94;5069855;28;20559;-68
2022/11/05 11:49:47;;;;;;;10.97;7.13;;;;;;;12.57;63.95;100450.47;5076947;28;20485;-68
2022/11/05 11:52:16;;;;;;;10.83;6.33;;;;;;;12.28;65.31;100452.44;5081703;28;20476;-68
2022/11/05 11:54:42;;;;;;;9.47;6.10;;;;;;;12.20;65.80;100447.78;5087871;28;20512;-68
2022/11/05 11:57:21;;;;;;;10.67;7.03;;;;;;;13.30;62.79;100451.44;5092836;28;20519;-68
2022/11/05 11:59:48;;;;;;;11.03;6.60;;;;;;;14.28;59.90;100440.56;5104524;28;20474;-68
2022/11/05 12:02:35;;;;;;;12.47;7.33;;;;;;;15.46;54.84;100443.28;5100543;27;20837;-68
2022/11/05 12:05:23;;;;;;;9.77;6.70;;;;;;;14.36;57.42;100445.16;5102161;28;20440;-69